createdAt,value
2023-04-17T00:01:44.122Z,16.50
2023-04-17T00:04:13.041Z,16.50
2023-04-17T00:06:43.423Z,16.50
2023-04-17T00:09:12.352Z,16.50
2023-04-17T00:11:39.534Z,16.50
2023-04-17T00:14:06.675Z,16.50
2023-04-17T00:16:33.679Z,16.40
2023-04-17T00:19:00.599Z,16.50
2023-04-17T00:21:29.821Z,16.40
2023-04-17T00:23:56.994Z,16.40
2023-04-17T00:26:24.169Z,16.40
2023-04-17T00:28:51.916Z,16.40
2023-04-17T00:31:19.162Z,16.40
2023-04-17T00:33:46.517Z,16.40
2023-04-17T00:36:15.385Z,16.30
2023-04-17T00:38:42.841Z,16.40
2023-04-17T00:41:10.498Z,16.40
2023-04-17T00:43:38.352Z,16.30
2023-04-17T00:46:06.189Z,16.40
2023-04-17T00:48:35.385Z,16.30
2023-04-17T00:51:03.298Z,16.30
2023-04-17T00:53:33.816Z,16.30
2023-04-17T00:56:03.209Z,16.30
2023-04-17T00:58:32.220Z,16.30
2023-04-17T01:00:59.864Z,16.30
2023-04-17T01:03:29.574Z,16.30
2023-04-17T01:05:56.884Z,16.30
2023-04-17T01:08:23.908Z,16.20
2023-04-17T01:10:52.365Z,16.20
2023-04-17T01:13:19.907Z,16.20
2023-04-17T01:15:47.236Z,16.20
2023-04-17T01:18:14.335Z,16.20
2023-04-17T01:20:41.303Z,16.20
2023-04-17T01:23:08.597Z,16.20
2023-04-17T01:25:36.207Z,16.10
2023-04-17T01:28:03.381Z,16.10
2023-04-17T01:30:30.512Z,16.10
2023-04-17T01:33:05.580Z,16.10
2023-04-17T01:35:32.515Z,16.10
2023-04-17T01:37:59.529Z,16.00
2023-04-17T01:40:26.570Z,16.00
2023-04-17T01:42:54.120Z,16.00
2023-04-17T01:45:21.499Z,16.00
2023-04-17T01:47:48.677Z,15.90
2023-04-17T01:50:15.874Z,15.90
2023-04-17T01:52:42.948Z,15.90
2023-04-17T01:55:10.211Z,15.90
2023-04-17T01:57:37.384Z,15.90
2023-04-17T02:00:09.308Z,15.90
2023-04-17T02:02:39.851Z,15.80
2023-04-17T02:05:07.792Z,15.80
2023-04-17T02:07:34.733Z,15.80
2023-04-17T02:10:01.759Z,15.80
2023-04-17T02:12:28.845Z,15.80
2023-04-17T02:15:00.961Z,15.80
2023-04-17T02:17:28.040Z,15.70
2023-04-17T02:19:55.022Z,15.70
2023-04-17T02:22:21.984Z,15.70
2023-04-17T02:24:48.976Z,15.60
2023-04-17T02:27:16.403Z,15.60
2023-04-17T02:29:43.901Z,15.60
2023-04-17T02:32:10.823Z,15.50
2023-04-17T02:34:38.040Z,15.50
2023-04-17T02:37:05.621Z,15.50
2023-04-17T02:39:34.017Z,15.50
2023-04-17T02:42:04.536Z,15.50
2023-04-17T02:44:31.683Z,15.50
2023-04-17T02:46:58.709Z,15.40
2023-04-17T02:49:28.381Z,15.40
2023-04-17T02:51:55.462Z,15.40
2023-04-17T02:54:22.508Z,15.40
2023-04-17T02:56:51.027Z,15.30
2023-04-17T02:59:18.095Z,15.30
2023-04-17T03:01:45.761Z,15.30
2023-04-17T03:04:14.462Z,15.30
2023-04-17T03:06:42.036Z,15.30
2023-04-17T03:09:12.321Z,15.30
2023-04-17T03:11:39.862Z,15.30
2023-04-17T03:14:06.827Z,15.20
2023-04-17T03:16:33.832Z,15.20
2023-04-17T03:19:03.357Z,15.20
2023-04-17T03:21:31.450Z,15.10
2023-04-17T03:23:58.947Z,15.10
2023-04-17T03:26:26.017Z,15.10
2023-04-17T03:28:53.498Z,15.10
2023-04-17T03:31:24.490Z,15.00
2023-04-17T03:33:51.746Z,15.00
2023-04-17T03:36:18.938Z,15.00
2023-04-17T03:38:46.557Z,15.00
2023-04-17T03:41:16.475Z,14.90
2023-04-17T03:43:45.641Z,14.90
2023-04-17T03:46:12.571Z,14.90
2023-04-17T03:48:39.611Z,14.90
2023-04-17T03:51:06.665Z,14.80
2023-04-17T03:53:34.961Z,14.80
2023-04-17T03:56:04.409Z,14.80
2023-04-17T03:58:36.840Z,14.70
2023-04-17T04:01:05.389Z,14.80
2023-04-17T04:03:38.090Z,14.70
2023-04-17T04:06:07.281Z,14.70
2023-04-17T04:08:34.889Z,14.70
2023-04-17T04:11:03.166Z,14.70
2023-04-17T04:13:36.883Z,14.70
2023-04-17T04:16:04.685Z,14.60
2023-04-17T04:18:34.824Z,14.60
2023-04-17T04:21:02.910Z,14.60
2023-04-17T04:23:33.856Z,14.60
2023-04-17T04:26:01.995Z,14.60
2023-04-17T04:28:38.300Z,14.60
2023-04-17T04:31:08.336Z,14.60
2023-04-17T04:33:39.353Z,14.60
2023-04-17T04:36:06.710Z,14.60
2023-04-17T04:38:35.252Z,14.50
2023-04-17T04:41:10.602Z,14.50
2023-04-17T04:43:39.369Z,14.50
2023-04-17T04:46:09.077Z,14.40
2023-04-17T04:48:42.872Z,14.40
2023-04-17T04:51:10.199Z,14.40
2023-04-17T04:53:38.800Z,14.40
2023-04-17T04:56:06.166Z,14.40
2023-04-17T04:58:34.374Z,14.40
2023-04-17T05:01:02.889Z,14.40
2023-04-17T05:03:37.316Z,14.40
2023-04-17T05:06:06.069Z,14.40
2023-04-17T05:08:46.103Z,14.40
2023-04-17T05:11:15.541Z,14.40
2023-04-17T05:13:43.433Z,14.40
2023-04-17T05:16:19.174Z,14.30
2023-04-17T05:18:48.055Z,14.40
2023-04-17T05:21:19.030Z,14.30
2023-04-17T05:23:49.519Z,14.40
2023-04-17T05:26:16.546Z,14.40
2023-04-17T05:28:45.153Z,14.40
2023-04-17T05:31:15.818Z,14.40
2023-04-17T05:33:43.656Z,14.40
2023-04-17T05:36:10.754Z,14.40
2023-04-17T05:38:40.127Z,14.50
2023-04-17T05:41:09.559Z,14.50
2023-04-17T05:43:37.724Z,14.50
2023-04-17T05:46:05.212Z,14.50
2023-04-17T05:48:32.198Z,14.50
2023-04-17T05:50:59.231Z,14.50
2023-04-17T05:53:26.565Z,14.50
2023-04-17T05:55:57.643Z,14.60
2023-04-17T05:58:25.064Z,14.60
2023-04-17T06:00:58.424Z,14.60
2023-04-17T06:03:27.493Z,14.70
2023-04-17T06:06:21.045Z,14.70
2023-04-17T06:08:47.981Z,14.70
2023-04-17T06:11:15.806Z,14.80
2023-04-17T06:13:43.803Z,14.70
2023-04-17T06:16:10.837Z,14.80
2023-04-17T06:18:38.355Z,14.80
2023-04-17T06:21:07.826Z,14.80
2023-04-17T06:23:34.766Z,14.90
2023-04-17T06:26:01.773Z,14.90
2023-04-17T06:28:29.147Z,14.90
2023-04-17T06:30:58.639Z,14.90
2023-04-17T06:33:26.906Z,15.00
2023-04-17T06:35:54.774Z,15.00
2023-04-17T06:38:47.936Z,15.00
2023-04-17T06:41:16.601Z,15.00
2023-04-17T06:43:43.604Z,15.10
2023-04-17T06:46:14.899Z,15.10
2023-04-17T06:48:41.907Z,15.10
2023-04-17T06:51:08.852Z,15.20
2023-04-17T06:53:36.094Z,15.20
2023-04-17T06:56:03.204Z,15.20
2023-04-17T06:58:30.273Z,15.30
2023-04-17T07:00:57.186Z,15.30
2023-04-17T07:03:24.369Z,15.30
2023-04-17T07:05:51.610Z,15.30
2023-04-17T07:08:22.347Z,15.30
2023-04-17T07:10:49.347Z,15.30
2023-04-17T07:13:16.278Z,15.40
2023-04-17T07:15:43.639Z,15.40
2023-04-17T07:18:11.261Z,15.40
2023-04-17T07:20:38.347Z,15.40
2023-04-17T07:23:05.396Z,15.50
2023-04-17T07:25:32.315Z,15.50
2023-04-17T07:27:59.435Z,15.50
2023-04-17T07:30:26.690Z,15.50
2023-04-17T07:32:53.660Z,15.50
2023-04-17T07:35:20.831Z,15.50
2023-04-17T07:37:47.747Z,15.50
2023-04-17T07:40:15.914Z,15.50
2023-04-17T07:42:43.004Z,15.60
2023-04-17T07:45:10.701Z,15.60
2023-04-17T07:47:37.814Z,15.60
2023-04-17T07:50:05.305Z,15.70
2023-04-17T07:52:32.233Z,15.70
2023-04-17T07:54:59.209Z,15.70
2023-04-17T07:57:28.896Z,15.70
2023-04-17T07:59:56.533Z,15.80
2023-04-17T08:02:23.672Z,15.80
2023-04-17T08:04:52.269Z,15.80
2023-04-17T08:07:20.218Z,15.80
2023-04-17T08:09:47.428Z,15.90
2023-04-17T08:12:14.494Z,15.90
2023-04-17T08:14:42.050Z,15.90
2023-04-17T08:17:11.227Z,15.90
2023-04-17T08:19:38.203Z,15.90
2023-04-17T08:22:06.159Z,15.90
2023-04-17T08:24:33.092Z,15.90
2023-04-17T08:27:00.132Z,15.90
2023-04-17T08:29:27.495Z,15.90
2023-04-17T08:32:10.360Z,16.00
2023-04-17T08:34:40.839Z,16.00
2023-04-17T08:37:07.856Z,16.00
2023-04-17T08:39:34.772Z,16.00
2023-04-17T08:42:06.798Z,16.10
2023-04-17T08:44:33.785Z,16.10
2023-04-17T08:47:00.988Z,16.10
2023-04-17T08:49:35.057Z,16.10
2023-04-17T08:52:04.219Z,16.10
2023-04-17T08:54:35.585Z,16.20
2023-04-17T08:57:04.002Z,16.20
2023-04-17T08:59:31.971Z,16.30
2023-04-17T09:02:07.254Z,16.30
2023-04-17T09:04:36.289Z,16.30
2023-04-17T09:07:04.357Z,16.30
2023-04-17T09:09:53.675Z,16.30
2023-04-17T09:12:22.857Z,16.30
2023-04-17T09:14:50.372Z,16.30
2023-04-17T09:17:18.976Z,16.40
2023-04-17T09:20:07.536Z,16.40
2023-04-17T09:22:36.393Z,16.50
2023-04-17T09:25:04.648Z,16.50
2023-04-17T09:27:31.848Z,16.50
2023-04-17T09:30:07.110Z,16.60
2023-04-17T09:32:34.465Z,16.60
2023-04-17T09:35:03.795Z,16.60
2023-04-17T09:37:56.215Z,16.60
2023-04-17T09:40:25.108Z,16.60
2023-04-17T09:43:03.813Z,16.70
2023-04-17T09:45:42.687Z,16.70
2023-04-17T09:48:12.153Z,16.70
2023-04-17T09:50:40.195Z,16.80
2023-04-17T09:53:08.042Z,16.80
2023-04-17T09:55:37.027Z,16.80
2023-04-17T09:58:06.335Z,16.80
2023-04-17T10:00:33.520Z,16.90
2023-04-17T10:03:00.792Z,16.90
2023-04-17T10:05:31.458Z,17.00
2023-04-17T10:07:58.516Z,17.00
2023-04-17T10:10:32.389Z,17.10
2023-04-17T10:13:01.494Z,17.10
2023-04-17T10:15:29.556Z,17.10
2023-04-17T10:18:20.858Z,17.10
2023-04-17T10:20:48.825Z,17.10
2023-04-17T10:23:35.135Z,17.20
2023-04-17T10:26:29.956Z,17.30
2023-04-17T10:28:57.932Z,17.30
2023-04-17T10:32:20.378Z,17.30
2023-04-17T10:34:47.849Z,17.30
2023-04-17T10:37:17.783Z,17.40
2023-04-17T10:40:01.582Z,17.40
2023-04-17T10:42:32.988Z,17.50
2023-04-17T10:45:05.889Z,17.50
2023-04-17T10:47:36.195Z,17.50
2023-04-17T10:50:10.225Z,17.60
2023-04-17T10:52:38.817Z,17.60
2023-04-17T10:55:08.142Z,17.60
2023-04-17T10:57:54.686Z,17.60
2023-04-17T11:00:32.525Z,17.60
2023-04-17T11:03:01.368Z,17.60
2023-04-17T11:05:29.051Z,17.60
2023-04-17T11:07:56.361Z,17.60
2023-04-17T11:10:23.487Z,17.70
2023-04-17T11:13:01.560Z,17.70
2023-04-17T11:15:29.894Z,17.60
2023-04-17T11:17:58.438Z,17.70
2023-04-17T11:20:28.150Z,17.70
2023-04-17T11:22:55.196Z,17.80
2023-04-17T11:25:22.860Z,17.80
2023-04-17T11:28:03.158Z,17.80
2023-04-17T11:30:35.098Z,17.90
2023-04-17T11:33:03.967Z,17.90
2023-04-17T11:35:35.943Z,17.90
2023-04-17T11:38:22.410Z,17.90
2023-04-17T11:41:01.244Z,18.00
2023-04-17T11:43:30.148Z,18.00
2023-04-17T11:45:59.486Z,18.10
2023-04-17T11:48:28.584Z,18.10
2023-04-17T11:50:57.882Z,18.10
2023-04-17T11:53:25.322Z,18.10
2023-04-17T11:56:18.780Z,18.10
2023-04-17T11:58:53.161Z,18.10
2023-04-17T12:01:24.936Z,18.10
2023-04-17T12:03:56.966Z,18.10
2023-04-17T12:06:24.898Z,18.10
2023-04-17T12:08:55.739Z,18.10
2023-04-17T12:11:24.008Z,18.10
2023-04-17T12:13:54.621Z,18.10
2023-04-17T12:16:24.788Z,18.10
2023-04-17T12:18:52.341Z,18.10
2023-04-17T12:21:24.124Z,18.10
2023-04-17T12:23:51.628Z,18.10
2023-04-17T12:26:18.603Z,18.20
2023-04-17T12:28:45.736Z,18.20
2023-04-17T12:31:12.786Z,18.30
2023-04-17T12:33:39.806Z,18.30
2023-04-17T12:36:07.283Z,18.30
2023-04-17T12:38:34.312Z,18.30
2023-04-17T12:41:01.312Z,18.30
2023-04-17T12:43:28.200Z,18.40
2023-04-17T12:45:55.245Z,18.40
2023-04-17T12:48:22.171Z,18.40
2023-04-17T12:50:49.170Z,18.40
2023-04-17T12:53:16.179Z,18.40
2023-04-17T12:55:44.278Z,18.50
2023-04-17T12:58:12.713Z,18.50
2023-04-17T13:00:43.557Z,18.50
2023-04-17T13:03:12.111Z,18.50
2023-04-17T13:05:39.609Z,18.60
2023-04-17T13:08:06.682Z,18.60
2023-04-17T13:10:34.417Z,18.60
2023-04-17T13:13:02.322Z,18.60
2023-04-17T13:15:29.288Z,18.60
2023-04-17T13:17:56.284Z,18.60
2023-04-17T13:20:23.469Z,18.70
2023-04-17T13:22:50.515Z,18.80
2023-04-17T13:25:17.637Z,18.80
2023-04-17T13:27:44.545Z,18.90
2023-04-17T13:30:11.936Z,18.90
2023-04-17T13:32:40.503Z,19.00
2023-04-17T13:35:09.680Z,19.00
2023-04-17T13:37:36.612Z,19.00
2023-04-17T13:40:06.782Z,19.10
2023-04-17T13:42:33.722Z,19.20
2023-04-17T13:45:00.732Z,19.20
2023-04-17T13:47:27.701Z,19.30
2023-04-17T13:49:54.650Z,19.40
2023-04-17T13:52:21.601Z,19.40
2023-04-17T13:54:48.721Z,19.50
2023-04-17T13:57:18.541Z,19.50
2023-04-17T13:59:45.667Z,19.50
2023-04-17T14:02:12.787Z,19.50
2023-04-17T14:04:39.995Z,19.60
2023-04-17T14:07:07.292Z,19.70
2023-04-17T14:09:34.256Z,19.80
2023-04-17T14:12:02.356Z,19.80
2023-04-17T14:14:29.359Z,19.90
2023-04-17T14:16:56.824Z,19.90
2023-04-17T14:19:24.177Z,19.90
2023-04-17T14:21:51.283Z,20.00
2023-04-17T14:24:18.729Z,20.00
2023-04-17T14:26:46.048Z,20.10
2023-04-17T14:29:14.106Z,20.10
2023-04-17T14:31:41.574Z,20.20
2023-04-17T14:34:08.623Z,20.30
2023-04-17T14:36:35.863Z,20.40
2023-04-17T14:39:03.475Z,20.50
2023-04-17T14:41:33.998Z,20.70
2023-04-17T14:44:01.417Z,20.90
2023-04-17T14:46:28.606Z,21.00
2023-04-17T14:48:56.378Z,21.20
2023-04-17T14:51:24.214Z,21.30
2023-04-17T14:53:53.086Z,21.40
2023-04-17T14:56:21.726Z,21.50
2023-04-17T14:58:49.116Z,21.70
2023-04-17T15:01:16.142Z,21.80
2023-04-17T15:03:47.353Z,22.00
2023-04-17T15:06:15.890Z,22.10
2023-04-17T15:08:42.891Z,22.40
2023-04-17T15:11:10.439Z,22.70
2023-04-17T15:13:37.587Z,23.10
2023-04-17T15:16:04.946Z,23.70
2023-04-17T15:18:32.459Z,24.20
2023-04-17T15:20:59.511Z,24.40
2023-04-17T15:23:28.586Z,24.80
2023-04-17T15:25:57.444Z,25.10
2023-04-17T15:28:25.362Z,25.40
2023-04-17T15:30:52.674Z,25.70
2023-04-17T15:33:20.171Z,26.20
2023-04-17T15:35:47.508Z,26.70
2023-04-17T15:38:14.498Z,26.80
2023-04-17T15:40:41.472Z,26.90
2023-04-17T15:43:10.666Z,27.10
2023-04-17T15:45:37.906Z,27.50
2023-04-17T15:48:05.290Z,27.70
2023-04-17T15:50:32.299Z,27.70
2023-04-17T15:52:59.374Z,27.60
2023-04-17T15:55:26.467Z,27.30
2023-04-17T15:57:53.564Z,27.00
2023-04-17T16:00:21.020Z,26.70
2023-04-17T16:02:49.074Z,26.40
2023-04-17T16:05:16.871Z,26.00
2023-04-17T16:07:44.481Z,25.60
2023-04-17T16:10:14.580Z,25.20
2023-04-17T16:12:46.087Z,24.90
2023-04-17T16:15:17.635Z,24.60
2023-04-17T16:17:45.755Z,24.40
2023-04-17T16:20:13.432Z,24.20
2023-04-17T16:22:40.778Z,24.10
2023-04-17T16:25:08.235Z,24.00
2023-04-17T16:27:35.263Z,24.00
2023-04-17T16:30:03.102Z,23.90
2023-04-17T16:32:31.654Z,23.90
2023-04-17T16:34:59.063Z,23.90
2023-04-17T16:37:26.265Z,23.80
2023-04-17T16:39:53.389Z,23.80
2023-04-17T16:42:20.355Z,23.70
2023-04-17T16:44:47.732Z,23.70
2023-04-17T16:47:15.146Z,23.60
2023-04-17T16:49:42.738Z,23.60
2023-04-17T16:52:09.837Z,23.60
2023-04-17T16:54:36.788Z,23.50
2023-04-17T16:57:05.252Z,23.50
2023-04-17T16:59:32.663Z,23.40
2023-04-17T17:02:02.509Z,23.30
2023-04-17T17:04:30.675Z,23.20
2023-04-17T17:06:57.791Z,23.00
2023-04-17T17:09:25.813Z,22.80
2023-04-17T17:11:52.965Z,22.70
2023-04-17T17:14:19.940Z,22.50
2023-04-17T17:16:46.939Z,22.40
2023-04-17T17:19:14.839Z,22.40
2023-04-17T17:21:42.008Z,22.30
2023-04-17T17:24:08.995Z,22.20
2023-04-17T17:26:36.963Z,22.10
2023-04-17T17:29:04.684Z,22.00
2023-04-17T17:31:33.659Z,21.90
2023-04-17T17:34:11.840Z,21.80
2023-04-17T17:36:49.580Z,21.70
2023-04-17T17:39:16.742Z,21.60
2023-04-17T17:41:45.178Z,21.40
2023-04-17T17:44:14.526Z,21.40
2023-04-17T17:46:41.983Z,21.30
2023-04-17T17:49:09.373Z,21.20
2023-04-17T17:51:36.507Z,21.10
2023-04-17T17:54:03.508Z,21.00
2023-04-17T17:56:30.488Z,20.90
2023-04-17T17:58:57.374Z,20.90
2023-04-17T18:01:27.061Z,20.80
2023-04-17T18:03:54.395Z,20.70
2023-04-17T18:06:21.580Z,20.70
2023-04-17T18:08:48.679Z,20.60
2023-04-17T18:11:15.687Z,20.50
2023-04-17T18:13:42.593Z,20.40
2023-04-17T18:16:09.715Z,20.30
2023-04-17T18:18:36.807Z,20.20
2023-04-17T18:21:07.396Z,20.20
2023-04-17T18:23:34.344Z,20.10
2023-04-17T18:26:02.763Z,20.00
2023-04-17T18:28:30.173Z,20.00
2023-04-17T18:30:57.234Z,19.90
2023-04-17T18:33:24.620Z,19.80
2023-04-17T18:35:51.898Z,19.80
2023-04-17T18:38:19.089Z,19.70
2023-04-17T18:40:46.103Z,19.70
2023-04-17T18:43:13.074Z,19.70
2023-04-17T18:45:40.090Z,19.60
2023-04-17T18:48:07.058Z,19.60
2023-04-17T18:50:34.566Z,19.50
2023-04-17T18:53:02.269Z,19.50
2023-04-17T18:55:29.489Z,19.50
2023-04-17T18:57:56.448Z,19.40
2023-04-17T19:00:23.598Z,19.40
2023-04-17T19:02:50.768Z,19.40
2023-04-17T19:05:21.052Z,19.40
2023-04-17T19:07:48.868Z,19.30
2023-04-17T19:10:15.947Z,19.30
2023-04-17T19:12:44.049Z,19.30
2023-04-17T19:15:12.498Z,19.30
2023-04-17T19:17:39.751Z,19.20
2023-04-17T19:20:07.619Z,19.20
2023-04-17T19:22:35.485Z,19.20
2023-04-17T19:25:03.507Z,19.20
2023-04-17T19:27:31.840Z,19.20
2023-04-17T19:29:59.749Z,19.20
2023-04-17T19:32:29.301Z,19.10
2023-04-17T19:34:58.788Z,19.10
2023-04-17T19:37:25.920Z,19.10
2023-04-17T19:39:56.529Z,19.00
2023-04-17T19:42:24.155Z,19.00
2023-04-17T19:44:52.180Z,19.00
2023-04-17T19:47:20.531Z,19.00
2023-04-17T19:49:47.838Z,18.90
2023-04-17T19:52:15.144Z,18.90
2023-04-17T19:54:45.337Z,18.90
2023-04-17T19:57:12.372Z,18.90
2023-04-17T19:59:39.447Z,18.80
2023-04-17T20:02:06.806Z,18.80
2023-04-17T20:04:34.878Z,18.80
2023-04-17T20:07:02.169Z,18.80
2023-04-17T20:09:29.500Z,18.80
2023-04-17T20:11:56.663Z,18.70
2023-04-17T20:14:25.823Z,18.70
2023-04-17T20:16:53.161Z,18.70
2023-04-17T20:19:20.668Z,18.70
2023-04-17T20:21:48.204Z,18.70
2023-04-17T20:24:16.192Z,18.70
2023-04-17T20:26:46.785Z,18.70
2023-04-17T20:29:14.228Z,18.70
2023-04-17T20:31:41.884Z,18.60
2023-04-17T20:34:09.344Z,18.60
2023-04-17T20:36:36.797Z,18.60
2023-04-17T20:39:03.955Z,18.50
2023-04-17T20:41:31.027Z,18.50
2023-04-17T20:44:01.663Z,18.50
2023-04-17T20:46:29.289Z,18.50
2023-04-17T20:48:56.732Z,18.40
2023-04-17T20:51:25.173Z,18.40
2023-04-17T20:53:53.190Z,18.40
2023-04-17T20:56:21.666Z,18.40
2023-04-17T20:58:48.567Z,18.30
2023-04-17T21:01:16.556Z,18.30
2023-04-17T21:03:44.085Z,18.30
2023-04-17T21:06:11.223Z,18.20
2023-04-17T21:08:38.204Z,18.20
2023-04-17T21:11:05.741Z,18.20
2023-04-17T21:13:32.802Z,18.20
2023-04-17T21:15:59.845Z,18.20
2023-04-17T21:18:27.137Z,18.20
2023-04-17T21:20:54.116Z,18.20
2023-04-17T21:23:21.194Z,18.20
2023-04-17T21:25:51.719Z,18.10
2023-04-17T21:28:18.811Z,18.10
2023-04-17T21:30:45.907Z,18.10
2023-04-17T21:33:12.953Z,18.10
2023-04-17T21:35:40.085Z,18.00
2023-04-17T21:38:07.148Z,18.00
2023-04-17T21:40:36.797Z,18.00
2023-04-17T21:43:04.233Z,18.00
2023-04-17T21:45:32.013Z,18.00
2023-04-17T21:47:59.122Z,18.00
2023-04-17T21:50:26.105Z,18.00
2023-04-17T21:52:53.166Z,17.90
2023-04-17T21:55:20.435Z,17.90
2023-04-17T21:58:30.388Z,17.90
2023-04-17T22:00:59.918Z,17.90
2023-04-17T22:03:27.211Z,17.80
2023-04-17T22:05:56.665Z,17.80
2023-04-17T22:08:25.287Z,17.80
2023-04-17T22:10:52.858Z,17.70
2023-04-17T22:13:20.056Z,17.70
2023-04-17T22:15:48.487Z,17.60
2023-04-17T22:18:15.851Z,17.60
2023-04-17T22:20:43.458Z,17.60
2023-04-17T22:23:10.603Z,17.60
2023-04-17T22:25:37.737Z,17.60
2023-04-17T22:28:04.900Z,17.50
2023-04-17T22:30:32.052Z,17.50
2023-04-17T22:32:59.360Z,17.60
2023-04-17T22:35:27.120Z,17.60
2023-04-17T22:37:54.367Z,17.50
2023-04-17T22:40:21.466Z,17.60
2023-04-17T22:42:50.461Z,17.50
2023-04-17T22:45:17.732Z,17.50
2023-04-17T22:47:44.953Z,17.50
2023-04-17T22:50:13.806Z,17.50
2023-04-17T22:52:41.272Z,17.40
2023-04-17T22:55:08.772Z,17.40
2023-04-17T22:57:36.071Z,17.40
2023-04-17T23:00:03.897Z,17.30
2023-04-17T23:02:31.308Z,17.30
2023-04-17T23:04:58.610Z,17.30
2023-04-17T23:07:25.800Z,17.30
2023-04-17T23:09:52.922Z,17.20
2023-04-17T23:12:20.040Z,17.20
2023-04-17T23:14:48.437Z,17.20
2023-04-17T23:17:15.579Z,17.20
2023-04-17T23:19:42.680Z,17.20
2023-04-17T23:22:10.199Z,17.10
2023-04-17T23:24:37.379Z,17.20
2023-04-17T23:27:04.606Z,17.10
2023-04-17T23:29:31.920Z,17.10
2023-04-17T23:31:59.062Z,17.10
2023-04-17T23:34:27.956Z,17.00
2023-04-17T23:36:55.081Z,17.00
2023-04-17T23:39:22.416Z,17.00
2023-04-17T23:41:49.829Z,17.00
2023-04-17T23:44:16.969Z,17.00
2023-04-17T23:46:44.142Z,16.90
2023-04-17T23:49:11.334Z,16.90
2023-04-17T23:51:38.442Z,16.90
2023-04-17T23:54:05.837Z,16.90
2023-04-17T23:56:33.015Z,16.90
2023-04-17T23:59:00.316Z,16.80
